Date,TemperatureHighF,TemperatureAvgF,TemperatureLowF,DewpointHighF,DewpointAvgF,DewpointLowF,HumidityHigh,HumidityAvg,HumidityLow,PressureMaxIn,PressureMinIn,WindSpeedMaxMPH,WindSpeedAvgMPH,GustSpeedMaxMPH,PrecipitationSumIn
2013-1-1,83,71,60,60,57,55,85,63,40,30.13,29.97,10,2,18,0.00
2013-1-2,86,72,59,67,60,56,92,70,40,30.01,29.91,5,0,9,0.00
2013-1-3,89,74,64,71,63,58,94,71,39,30.05,29.94,6,1,10,0.00
2013-1-4,89,73,65,68,65,62,95,77,43,30.15,30.02,5,1,9,0.00
2013-1-5,78,70,66,68,65,63,93,84,66,30.17,30.07,5,2,12,0.00
2013-1-6,86,74,64,77,67,63,99,81,49,30.11,29.97,8,2,14,0.04
2013-1-7,80,72,67,69,67,64,94,83,61,30.08,29.99,6,2,10,0.00
2013-1-8,86,75,69,74,69,67,96,82,56,30.13,29.99,8,2,14,0.50
2013-1-9,85,77,71,71,68,66,94,75,55,30.20,30.07,9,3,17,0.01
2013-1-10,83,75,69,70,64,58,85,69,48,30.21,30.10,11,2,22,0.00
2013-1-11,83,75,69,70,66,63,87,75,58,30.18,30.07,8,2,15,0.01
2013-1-12,86,76,68,67,64,61,86,67,46,30.10,30.00,8,2,13,0.00
2013-1-13,86,76,68,66,63,60,84,66,44,30.05,29.99,8,2,14,0.00
2013-1-14,84,74,64,66,62,59,91,68,45,30.08,30.03,9,1,15,0.00
2013-1-15,86,73,65,70,63,60,95,74,46,30.05,29.96,7,1,11,0.00
2013-1-16,87,74,61,72,64,59,96,74,47,30.03,29.92,9,1,13,0.00
2013-1-17,87,73,61,70,63,49,92,72,49,30.00,29.88,13,2,22,0.00
2013-1-18,75,63,51,54,48,41,74,59,45,30.16,30.00,8,3,14,0.00
2013-1-19,75,67,60,66,61,52,94,81,69,30.14,30.02,5,1,8,0.06
2013-1-20,86,72,63,70,64,62,99,79,48,30.06,29.92,7,1,14,0.01
2013-1-21,87,73,65,71,64,61,95,76,45,29.99,29.87,6,1,10,0.00
2013-1-22,78,68,61,62,56,48,92,67,46,30.15,29.91,9,3,17,0.00
2013-1-23,79,66,59,56,51,45,73,61,33,30.23,30.12,8,2,14,0.00
2013-1-24,82,66,57,51,45,29,76,51,18,30.22,30.11,8,2,14,0.00
2013-1-25,81,66,55,55,50,46,82,57,33,30.21,30.09,7,1,11,0.00
2013-1-26,86,68,57,56,51,41,89,58,22,30.18,30.07,5,1,8,0.00
2013-1-27,82,70,60,59,54,47,81,59,31,30.21,30.12,8,2,15,0.00
2013-1-28,83,74,65,65,60,56,81,63,43,30.24,30.14,9,2,16,0.00
2013-1-29,83,74,69,71,65,62,92,74,59,30.15,30.03,8,2,17,0.20
2013-1-30,85,74,66,66,62,60,85,67,45,30.03,29.88,12,3,22,0.00
2013-1-31,70,65,54,69,54,33,99,71,39,30.11,29.85,8,2,18,0.00
2013-2-1,85,61,52,70,47,28,99,65,38,30.20,29.86,4,2,9,0.01
2013-2-2,80,34,0,65,43,29,94,36,31,30.19,29.79,6,0,12,0.00
2013-2-3,79,63,52,50,39,15,85,51,10,29.97,29.86,7,2,14,0.00
2013-2-4,79,63,46,51,39,23,78,48,13,29.93,29.82,7,1,12,0.00
2013-2-5,87,68,51,59,51,38,91,61,18,29.88,29.79,7,1,11,0.00
2013-2-6,87,70,59,65,58,55,94,70,37,29.90,29.81,6,1,11,0.00
2013-2-7,87,73,61,66,60,53,94,67,32,29.87,29.72,8,2,14,0.00
2013-2-8,86,73,64,68,62,52,91,72,32,29.82,29.69,7,2,12,0.00
2013-2-9,83,72,63,64,61,56,98,71,43,29.96,29.81,9,3,17,0.01
2013-2-10,77,71,66,62,58,56,82,64,51,30.05,29.93,11,3,18,0.03
2013-2-11,82,72,63,63,59,57,87,66,47,30.01,29.89,9,2,16,0.00
2013-2-12,90,74,61,68,62,55,96,70,32,29.91,29.75,9,2,14,0.00
2013-2-13,91,77,67,72,66,62,99,73,40,29.80,29.66,8,2,14,0.00
2013-2-14,84,68,62,71,66,60,97,91,64,29.81,29.65,10,2,21,1.59
2013-2-15,76,66,62,69,64,60,99,93,64,29.83,29.72,5,1,9,0.10
2013-2-16,73,64,53,63,54,39,99,71,35,29.88,29.67,11,3,23,0.01
2013-2-17,62,52,42,40,19,0,64,33,10,30.11,29.87,10,4,19,0.00
2013-2-18,72,59,45,52,38,22,61,45,31,30.11,30.00,11,3,18,0.00
2013-2-19,82,70,54,66,58,51,92,68,42,30.00,29.87,9,2,17,0.13
2013-2-20,85,72,62,67,62,56,99,73,38,29.91,29.79,7,2,12,0.01
2013-2-21,86,78,70,66,64,60,83,63,43,29.88,29.80,6,3,11,0.00
2013-2-22,91,76,65,75,67,62,98,76,48,30.30,29.80,9,3,15,0.00
2013-2-23,92,78,70,72,68,62,93,74,39,29.83,29.69,8,2,15,0.28
2013-2-24,93,78,71,75,68,58,99,76,33,29.78,29.67,8,1,11,0.00
2013-2-25,88,76,68,74,69,64,99,81,47,29.84,29.59,9,2,17,0.01
2013-2-26,90,79,72,74,69,63,99,74,43,29.67,29.58,10,3,20,0.00
2013-2-27,78,70,62,73,63,56,96,81,55,29.75,29.65,6,1,11,0.43
2013-2-28,76,64,58,63,50,33,94,63,22,29.80,29.69,8,2,14,0.01
2013-3-1,66,62,58,55,46,40,78,57,41,29.78,29.68,6,2,11,0.00
2013-3-2,68,58,50,46,34,23,66,43,22,29.83,29.74,12,3,21,0.00
2013-3-3,64,54,47,39,34,28,68,49,27,29.94,29.76,11,3,22,0.00
2013-3-4,75,55,39,41,26,8,74,40,10,30.00,29.91,8,2,16,0.00
2013-3-5,83,64,46,55,46,39,91,57,23,29.97,29.86,7,2,13,0.00
2013-3-6,78,64,52,60,45,11,93,57,10,29.89,29.74,12,4,21,0.00
2013-3-7,79,60,46,51,37,28,85,46,17,29.98,29.86,7,2,14,0.00
2013-3-8,84,65,51,50,41,18,86,51,10,30.00,29.88,7,2,11,0.00
2013-3-9,79,65,53,52,48,44,84,56,30,29.99,29.89,11,2,17,0.00
2013-3-10,79,69,58,56,51,44,85,56,34,29.95,29.86,10,3,16,0.00
2013-3-11,82,72,64,59,55,48,74,57,33,29.90,29.74,11,3,17,0.00
2013-3-12,86,74,64,64,61,57,87,66,46,29.79,29.69,8,2,16,0.00
2013-3-13,91,69,56,68,44,27,75,44,16,30.30,29.84,8,3,16,0.00
2013-3-14,75,62,52,49,37,17,80,46,14,30.00,29.88,8,3,17,0.00
2013-3-15,77,63,50,49,41,23,73,49,16,30.05,29.93,8,2,12,0.00
2013-3-16,82,66,50,54,47,37,90,57,22,29.99,29.87,8,2,15,0.00
2013-3-17,80,68,55,58,54,51,89,63,38,29.95,29.82,10,2,17,0.00
2013-3-18,84,71,64,69,62,57,99,74,47,29.87,29.74,11,2,18,1.25
2013-3-19,87,73,66,69,65,60,99,78,41,29.80,29.63,9,1,18,0.00
2013-3-20,87,73,62,72,62,54,99,71,40,29.77,29.59,9,2,16,0.00
2013-3-21,80,68,56,61,45,14,93,53,10,29.74,29.62,8,2,14,0.00
2013-3-22,80,68,52,67,56,48,95,68,40,29.80,29.69,9,2,17,0.00
2013-3-23,94,80,70,77,67,58,99,68,32,29.77,29.57,8,1,15,0.01
2013-3-24,92,80,71,74,70,62,99,74,42,29.68,29.45,15,4,29,0.31
2013-3-25,81,73,63,74,53,22,99,59,15,29.78,29.52,9,3,15,0.01
2013-3-26,69,61,49,38,28,9,55,31,11,30.00,29.77,11,4,21,0.00
2013-3-27,74,57,45,42,30,13,65,41,11,30.05,29.95,7,2,13,0.00
2013-3-28,77,61,47,42,36,18,78,44,13,30.06,29.95,8,2,14,0.00
2013-3-29,79,65,52,48,41,31,72,45,20,30.08,29.99,9,2,14,0.00
2013-3-30,79,67,54,61,47,34,91,54,21,30.05,29.95,10,2,13,0.00
2013-3-31,84,71,56,63,57,50,93,64,39,29.98,29.82,10,3,15,0.00
2013-4-1,91,78,67,72,61,50,92,63,26,29.84,29.71,9,2,17,0.04
2013-4-3,91,76,74,68,67,66,77,74,48,30.30,29.81,4,2,10,0.00
2013-4-4,88,76,69,72,67,65,94,77,49,29.83,29.68,12,3,21,0.24
2013-4-5,73,69,67,70,66,64,99,91,80,29.78,29.60,11,2,17,0.68
2013-4-6,82,71,67,65,61,52,94,74,39,30.02,29.63,9,2,17,0.68
2013-4-7,70,70,68,61,60,58,79,70,68,29.98,29.93,4,2,9,0.00
2013-4-8,91,74,60,68,58,45,94,61,27,30.30,29.94,8,2,14,0.00
2013-4-9,84,75,66,67,62,58,90,66,45,30.05,29.94,9,3,16,0.00
2013-4-10,87,78,70,69,66,63,84,68,48,30.00,29.88,10,3,18,0.00
2013-4-11,86,79,75,71,68,66,81,70,52,29.91,29.79,11,5,20,0.00
2013-4-12,91,77,74,73,71,66,89,82,48,30.30,29.77,6,2,13,0.17
2013-4-13,90,78,72,77,71,62,98,80,54,29.86,29.76,9,1,18,0.40
2013-4-14,90,80,72,77,71,66,99,75,48,29.86,29.78,11,3,17,0.00
2013-4-15,95,79,69,74,70,65,99,78,39,29.94,29.82,12,2,18,1.73
2013-4-16,88,78,70,78,71,67,99,80,57,30.01,29.92,11,3,16,0.01
2013-4-17,87,78,70,69,64,53,92,64,35,30.01,29.91,9,2,14,0.00
2013-4-18,89,80,71,70,67,62,87,67,45,29.96,29.87,9,3,16,0.01
2013-4-19,90,82,75,71,68,62,85,65,43,29.94,29.85,11,4,21,0.01
2013-4-20,96,80,73,73,68,58,85,70,30,29.99,29.86,11,2,17,0.00
2013-4-21,90,78,71,71,68,65,94,72,48,29.99,29.87,8,2,18,0.00
2013-4-22,91,77,71,70,66,60,91,72,37,29.94,29.82,10,2,17,0.00
2013-4-23,85,76,66,67,61,55,96,64,38,29.99,29.85,11,3,21,0.00
2013-4-24,87,77,64,62,57,54,83,53,34,30.03,29.93,8,2,17,0.00
2013-4-25,86,77,65,63,56,50,84,52,30,30.10,29.97,8,2,13,0.00
2013-4-26,86,76,63,61,58,54,85,56,36,30.11,30.01,10,3,17,0.00
2013-4-27,85,80,74,62,58,51,62,47,32,30.06,29.98,8,4,16,0.00
2013-4-28,91,78,71,59,56,46,65,48,26,30.30,29.88,9,4,18,0.00
2013-4-29,88,78,68,67,63,58,81,61,40,29.93,29.82,10,3,17,0.00
2013-4-30,89,76,70,72,68,65,95,77,47,29.89,29.81,11,1,16,0.57
2013-5-1,89,75,69,76,68,64,99,82,45,29.89,29.81,8,2,14,0.40
2013-5-2,80,72,68,75,70,68,99,95,75,29.84,29.67,12,2,23,3.94
2013-5-3,92,76,68,73,68,59,99,79,35,29.72,29.56,8,2,17,0.81
2013-5-4,89,77,67,73,66,58,99,73,37,29.69,29.57,10,3,15,0.00
2013-5-5,83,74,65,69,56,36,98,58,19,29.82,29.64,11,3,17,0.00
2013-5-6,88,73,58,64,55,46,91,56,31,29.91,29.81,8,2,14,0.00
2013-5-7,87,74,61,59,53,45,80,52,24,29.95,29.86,8,3,14,0.00
2013-5-8,90,76,60,62,54,41,91,53,20,30.03,29.93,6,1,11,0.00
2013-5-9,94,79,66,70,61,52,78,57,24,30.03,29.94,8,2,16,0.00
2013-5-10,93,81,73,72,68,60,90,68,35,30.03,29.90,10,2,16,0.07
2013-5-11,93,81,72,80,70,64,99,74,41,29.96,29.85,10,2,18,0.14
2013-5-12,97,80,71,77,69,56,99,74,28,29.95,29.82,8,1,18,0.21
2013-5-13,91,78,72,71,66,54,96,69,31,30.30,29.62,10,2,17,2.68
2013-5-14,84,76,68,63,54,43,75,48,27,30.04,29.92,10,3,17,0.00
2013-5-15,84,75,64,62,55,48,75,52,31,30.05,29.94,11,3,16,0.00
2013-5-16,87,77,64,62,56,51,82,51,32,29.97,29.89,9,2,14,0.00
2013-5-17,87,78,68,69,65,59,85,66,46,29.95,29.86,9,3,17,0.00
2013-5-18,92,80,71,72,67,62,91,66,39,29.95,29.88,10,2,16,0.00
2013-5-19,91,81,71,70,65,58,91,61,35,29.95,29.85,8,2,14,0.00
2013-5-20,83,77,66,72,69,64,98,76,58,29.93,29.83,12,2,21,1.49
2013-5-21,87,77,68,78,69,63,99,79,52,29.92,29.78,11,3,17,0.04
2013-5-22,92,79,72,73,68,62,93,72,42,29.82,29.75,11,2,17,0.06
2013-5-23,95,82,72,77,69,51,99,69,26,29.86,29.75,8,2,12,0.00
2013-5-24,95,84,74,75,66,49,96,61,24,29.92,29.80,8,2,16,0.00
2013-5-25,88,81,76,72,63,56,84,56,36,30.02,29.89,11,4,19,0.00
2013-5-26,87,79,68,63,58,55,73,51,36,30.03,29.96,11,3,18,0.00
2013-5-27,88,80,71,71,64,56,83,59,47,30.02,29.92,11,4,20,0.06
2013-5-28,86,79,75,72,69,66,86,71,53,29.97,29.90,13,5,24,0.07
2013-5-29,82,75,70,77,71,67,99,87,65,29.95,29.88,11,3,21,2.85
2013-5-30,83,77,72,75,70,65,93,77,63,29.93,29.85,16,6,28,0.92
2013-5-31,86,79,75,75,71,69,92,78,57,29.92,29.85,12,4,19,0.16
2013-6-1,89,78,74,78,74,72,99,90,59,29.89,29.81,8,2,13,0.81
2013-6-2,98,80,72,83,73,64,99,81,34,29.86,29.77,8,1,11,0.27
2013-6-3,91,80,72,80,73,69,99,83,52,29.89,29.76,11,1,18,0.88
2013-6-4,90,80,74,80,74,70,99,84,54,29.91,29.80,8,1,14,0.01
2013-6-5,85,81,78,78,75,73,89,82,69,29.87,29.74,7,2,11,0.06
2013-6-6,91,80,73,82,74,68,99,82,48,30.30,29.60,16,3,28,2.42
2013-6-7,93,78,73,78,74,71,99,88,51,29.84,29.69,9,2,15,1.40
2013-6-8,86,78,73,82,76,73,99,95,77,29.97,29.81,10,1,18,3.97
2013-6-9,90,82,72,80,74,67,99,78,49,29.98,29.88,14,3,22,0.51
2013-6-10,92,84,78,76,73,69,88,71,51,29.95,29.86,10,3,16,0.00
2013-6-11,94,83,74,80,75,68,93,77,48,29.95,29.85,12,2,17,0.40
2013-6-12,95,81,76,82,74,68,99,83,45,29.93,29.87,8,1,14,0.06
2013-6-13,95,82,74,83,73,67,99,77,41,29.90,29.79,7,1,11,0.01
2013-6-14,97,83,73,80,71,64,99,71,35,29.83,29.73,11,2,21,0.01
2013-6-15,101,85,74,80,71,61,99,67,29,29.91,29.77,8,2,12,0.00
2013-6-16,95,85,76,79,72,63,99,68,36,29.95,29.87,9,2,15,0.00
2013-6-17,95,86,77,78,71,64,93,64,38,29.93,29.85,10,3,16,0.00
2013-6-18,97,86,77,78,71,64,95,64,37,29.92,29.83,10,2,14,0.00
2013-6-19,95,84,78,77,72,66,89,68,41,29.91,29.83,8,2,13,0.00
2013-6-20,99,84,75,73,68,60,86,63,30,29.94,29.87,14,2,28,0.00
2013-6-21,94,85,75,76,68,58,93,61,30,29.96,29.88,9,2,14,0.00
2013-6-22,93,85,76,75,69,62,88,61,38,29.95,29.89,9,2,14,0.01
2013-6-23,92,83,76,77,70,65,96,66,44,29.98,29.90,11,3,17,0.21
2013-6-24,92,85,78,72,68,63,76,58,40,30.02,29.93,13,4,20,0.00
2013-6-25,93,85,78,72,70,66,81,62,45,29.99,29.89,11,3,16,0.00
2013-6-26,93,86,81,71,68,62,71,57,36,30.30,29.87,8,3,14,0.03
2013-6-27,95,82,75,78,72,66,93,73,41,29.92,29.81,8,1,12,0.20
2013-6-28,98,84,74,83,71,63,99,70,33,29.85,29.70,8,1,17,0.55
2013-6-29,100,82,75,79,73,62,99,78,30,29.77,29.67,11,1,17,0.13
2013-6-30,94,79,72,78,74,67,99,87,45,29.80,29.69,9,1,21,1.70
2013-7-1,93,81,75,80,74,68,99,81,46,29.89,29.76,12,3,20,0.03
2013-7-2,91,82,76,78,74,67,92,77,55,29.96,29.83,11,2,21,0.10
2013-7-3,90,81,75,77,73,69,94,78,52,29.99,29.90,14,3,24,0.37
2013-7-4,92,83,76,76,72,66,96,70,45,30.00,29.92,13,4,20,0.07
2013-7-5,88,80,72,80,74,68,99,83,63,30.00,29.90,12,3,23,1.02
2013-7-6,91,84,78,75,70,65,80,65,43,29.97,29.88,11,4,18,0.04
2013-7-7,91,84,76,74,70,65,87,63,45,29.96,29.87,12,4,18,0.00
2013-7-8,92,84,77,73,68,59,85,60,34,29.99,29.92,10,3,17,0.00
2013-7-9,90,82,72,75,69,61,90,67,44,30.01,29.90,10,2,17,0.24
2013-7-10,91,80,72,73,70,64,90,73,43,29.94,29.85,8,1,12,0.10
2013-7-11,95,82,76,72,69,62,86,65,36,30.30,29.86,8,1,21,0.44
2013-7-12,96,82,75,81,71,62,99,74,33,29.88,29.81,9,1,16,0.01
2013-7-13,94,77,73,75,72,66,99,87,42,29.94,29.83,12,1,21,1.02
2013-7-14,93,78,72,78,72,63,99,85,38,30.01,29.90,11,2,19,0.23
2013-7-15,92,81,73,77,72,65,99,76,46,30.01,29.93,10,2,15,0.01
2013-7-16,86,78,72,78,71,65,99,82,52,30.08,29.97,15,3,23,1.32
2013-7-17,84,78,74,77,73,69,99,86,67,30.06,29.96,11,2,17,0.41
2013-7-18,90,78,72,78,72,68,99,84,48,30.04,29.97,8,2,15,0.99
2013-7-19,91,81,73,80,74,67,99,81,48,30.05,29.95,10,2,16,0.01
2013-7-20,89,81,76,80,76,72,96,85,67,30.04,29.95,7,1,11,0.31
2013-7-21,96,82,76,80,74,68,99,80,41,30.07,29.95,10,1,16,0.10
2013-7-22,97,84,75,80,72,61,99,71,32,30.06,29.97,7,2,13,0.00
2013-7-23,98,87,77,79,70,59,95,62,29,30.02,29.88,7,2,11,0.00
2013-7-24,96,86,77,76,68,49,93,60,21,29.94,29.83,9,2,15,0.00
2013-7-25,96,85,76,75,71,67,91,64,39,29.93,29.83,9,2,16,0.00
2013-7-26,95,84,78,76,72,65,86,69,41,29.93,29.84,12,2,20,0.07
2013-7-27,97,81,76,78,74,66,94,80,38,29.93,29.84,10,1,15,0.14
2013-7-28,92,81,75,82,75,70,99,83,51,29.99,29.86,8,1,16,0.06
2013-7-29,95,83,74,78,72,67,99,73,43,30.06,29.93,8,2,16,0.01
2013-7-30,94,84,75,81,74,66,99,75,43,30.09,30.00,11,2,17,0.38
2013-7-31,94,88,82,73,68,61,66,53,36,30.30,29.92,11,4,17,0.00
2013-8-1,93,84,76,75,69,62,90,62,36,29.97,29.85,9,3,19,0.00
2013-8-2,93,82,76,76,70,61,90,68,38,29.96,29.83,10,2,14,0.00
2013-8-3,88,79,75,76,73,70,95,82,63,30.03,29.93,7,1,15,0.04
2013-8-4,101,82,74,80,73,62,99,79,29,30.02,29.89,13,1,21,0.61
2013-8-5,93,82,76,83,75,68,99,81,48,30.30,29.87,7,1,11,0.09
2013-8-6,102,84,76,79,72,58,99,72,26,29.90,29.80,7,1,11,0.00
2013-8-7,93,84,77,79,73,65,97,70,41,29.90,29.81,8,2,14,0.01
2013-8-8,94,86,80,74,70,64,83,60,38,29.94,29.84,10,4,18,0.00
2013-8-9,93,84,79,74,68,60,76,59,41,29.99,29.87,10,3,18,0.03
2013-8-10,94,86,77,75,70,62,89,62,35,30.03,29.95,10,3,17,0.00
2013-8-11,95,86,78,74,70,64,87,61,37,30.05,29.98,9,3,14,0.00
2013-8-12,93,85,76,76,69,60,93,61,35,30.03,29.93,11,2,17,0.00
2013-8-13,96,86,77,79,69,60,94,59,32,29.96,29.86,7,2,14,0.00
2013-8-14,97,86,76,77,69,58,94,60,28,29.95,29.84,8,2,14,0.00
2013-8-15,93,84,75,75,71,66,94,68,42,29.98,29.87,9,2,17,0.07
2013-8-16,96,86,78,76,71,65,86,63,39,29.97,29.88,9,2,14,0.00
2013-8-17,95,87,81,76,72,64,84,63,39,30.00,29.91,9,3,16,0.00
2013-8-18,92,86,80,76,71,66,81,63,42,30.00,29.91,11,4,20,0.03
2013-8-19,94,86,80,75,70,63,85,62,37,29.99,29.88,11,3,17,0.00
2013-8-20,94,85,79,73,69,58,80,60,33,29.98,29.89,11,3,18,0.01
2013-8-21,91,83,77,80,75,71,98,76,53,30.00,29.91,11,3,17,0.28
2013-8-22,93,85,78,79,71,66,93,65,42,29.98,29.88,11,3,16,0.17
2013-8-23,95,85,77,76,71,64,90,64,39,29.93,29.85,10,2,17,0.00
2013-8-24,96,85,77,78,70,63,93,65,35,30.01,29.89,13,2,24,0.01
2013-8-25,91,82,76,77,71,64,90,70,43,30.06,29.95,8,2,12,0.34
2013-8-26,94,80,72,77,71,62,99,78,36,30.03,29.92,11,2,18,1.54
2013-8-27,92,79,72,78,72,63,99,80,41,29.96,29.88,7,1,11,0.09
2013-8-28,91,83,76,74,70,64,91,67,43,29.95,29.86,6,2,10,0.60
2013-8-29,96,84,74,76,71,62,98,68,34,30.30,29.83,8,2,14,0.01
2013-8-30,99,86,76,79,70,55,99,63,24,29.92,29.81,8,2,14,0.00
2013-8-31,99,84,76,76,68,54,92,64,25,29.90,29.82,9,2,17,0.00
2013-9-1,97,82,74,79,70,57,98,70,28,29.92,29.84,8,1,13,0.00
2013-9-2,98,81,74,83,72,60,99,80,31,29.95,29.85,12,1,25,0.18
2013-9-3,98,83,73,79,70,58,99,69,28,29.94,29.85,8,1,14,0.01
2013-9-4,94,84,78,78,73,67,95,72,45,29.99,29.86,9,2,13,0.00
2013-9-5,95,86,79,78,72,62,90,66,36,29.99,29.91,10,2,16,0.00
2013-9-6,97,86,78,79,71,61,95,64,34,29.95,29.83,8,2,13,0.00
2013-9-7,92,80,74,76,71,67,94,77,48,29.90,29.81,11,2,17,0.23
2013-9-8,96,80,73,76,71,61,97,77,32,29.87,29.77,8,1,11,0.18
2013-9-9,92,82,73,77,70,62,96,71,40,29.92,29.81,14,2,21,0.26
2013-9-10,91,81,74,78,72,65,99,76,46,29.96,29.87,11,2,18,0.03
2013-9-11,87,79,74,75,73,66,99,81,52,29.98,29.88,9,2,14,0.57
2013-9-12,90,80,76,77,73,66,97,80,51,29.92,29.81,7,1,11,0.00
2013-9-13,98,84,74,81,71,56,99,72,25,29.82,29.71,7,1,12,0.34
2013-9-14,98,85,75,82,70,59,99,65,31,29.89,29.73,8,2,14,0.00
2013-9-15,89,82,76,78,73,64,99,76,53,29.98,29.83,11,2,18,0.09
2013-9-16,90,79,75,80,76,68,99,93,56,29.99,29.87,14,2,24,1.18
2013-9-17,81,77,72,80,75,71,99,96,87,29.96,29.83,11,1,17,0.89
2013-9-18,91,80,75,77,73,68,98,80,48,30.30,29.85,5,1,10,0.16
2013-9-19,91,80,73,81,73,68,99,81,49,29.92,29.83,10,2,17,0.11
2013-9-20,91,81,71,73,66,54,96,64,32,29.91,29.81,10,2,15,0.01
2013-9-21,96,82,72,74,66,53,95,63,26,29.84,29.68,8,1,13,0.00
2013-9-22,98,84,74,80,68,57,99,63,27,29.78,29.66,7,1,12,0.00
2013-9-23,93,82,77,80,73,64,98,76,40,29.89,29.76,5,1,11,0.14
2013-9-24,93,78,74,81,76,70,99,93,56,29.88,29.78,11,1,17,1.19
2013-9-25,92,81,73,78,71,61,99,76,38,29.82,29.69,11,2,17,0.00
2013-9-26,93,81,74,80,76,67,99,86,50,29.77,29.69,12,2,21,0.37
2013-9-27,94,81,73,77,69,51,99,70,27,29.83,29.73,8,2,13,0.04
2013-9-28,92,81,74,74,69,61,96,70,37,29.87,29.79,10,2,16,0.07
2013-9-29,93,80,69,74,66,56,99,66,31,29.88,29.79,8,1,13,0.00
2013-9-30,93,82,71,74,65,54,99,62,30,29.92,29.82,9,2,14,0.00
2013-10-1,91,83,74,74,66,58,94,59,36,29.95,29.87,9,3,16,0.00
2013-10-2,90,83,77,70,65,60,77,56,38,29.97,29.88,10,3,17,0.00
2013-10-3,92,83,77,70,64,57,76,55,33,29.97,29.86,8,2,14,0.00
2013-10-4,93,82,73,74,64,50,93,60,27,29.97,29.89,8,2,13,0.00
2013-10-5,94,81,71,73,65,57,96,62,31,29.95,29.85,8,2,14,0.00
2013-10-6,95,82,72,75,67,58,97,65,31,29.88,29.77,7,1,11,0.00
2013-10-7,94,79,72,78,70,59,99,77,34,29.81,29.72,11,1,18,1.28
2013-10-8,76,75,74,75,75,74,99,99,99,29.77,29.75,2,0,4,0.01
2013-10-9,91,77,71,76,71,67,99,82,48,30.30,29.81,5,2,11,0.01
2013-10-10,91,79,70,72,66,56,99,68,32,29.93,29.85,9,2,16,0.00
2013-10-11,92,79,68,69,61,50,94,59,25,29.93,29.85,8,2,13,0.00
2013-10-12,93,78,67,69,60,47,94,59,22,29.95,29.86,8,1,11,0.00
2013-10-13,92,78,71,68,58,40,87,55,17,29.97,29.88,8,2,15,0.00
2013-10-14,91,79,69,66,60,48,88,56,24,29.93,29.81,8,2,14,0.00
2013-10-15,91,79,70,70,64,53,94,63,30,29.87,29.77,8,2,11,0.00
2013-10-16,91,79,69,72,64,54,97,64,31,29.86,29.79,7,1,10,0.00
2013-10-17,94,81,70,73,64,53,96,61,26,29.88,29.80,8,1,11,0.00
2013-10-18,94,81,70,73,65,59,95,63,33,30.30,29.81,8,1,13,0.00
2013-10-19,78,75,72,69,68,67,87,78,74,29.88,29.82,2,0,4,0.00
2013-10-20,99,84,75,80,69,53,94,66,22,30.30,29.78,7,1,11,0.00
2013-10-21,97,84,74,78,69,58,94,64,29,29.91,29.81,6,2,14,0.00
2013-10-22,97,84,75,77,69,56,93,65,27,29.88,29.73,6,1,13,0.01
2013-10-23,91,80,75,74,67,58,90,66,35,29.87,29.72,7,2,15,0.00
2013-10-24,83,75,70,64,55,50,72,50,32,30.01,29.85,9,2,14,0.00
2013-10-25,86,74,66,58,54,45,72,53,27,30.07,29.98,11,3,17,0.00
2013-10-26,88,75,64,58,52,40,78,49,19,30.06,29.97,8,2,11,0.00
2013-10-27,88,74,64,59,53,43,73,49,22,30.01,29.93,7,2,11,0.00
2013-10-28,88,76,65,64,55,39,91,56,19,30.06,29.96,8,2,14,0.00
2013-10-29,88,77,66,64,57,48,88,55,29,30.09,30.00,10,2,17,0.00
2013-10-30,87,79,68,64,56,46,81,47,24,30.10,30.00,11,3,20,0.00
2013-10-31,88,80,72,67,59,51,71,51,29,30.03,29.92,9,3,15,0.01
2013-11-1,90,80,70,76,66,58,99,66,34,29.93,29.79,7,2,15,0.01
2013-11-2,96,80,70,72,62,40,97,61,15,29.85,29.71,8,2,14,0.00
2013-11-3,84,74,68,58,49,38,68,44,23,29.95,29.81,11,4,21,0.00
2013-11-4,82,76,68,60,50,42,57,41,30,29.99,29.93,17,5,25,0.01
2013-11-5,85,79,76,61,56,50,54,46,36,30.00,29.93,13,6,26,0.00
2013-11-6,87,79,70,62,56,47,76,46,26,29.98,29.91,11,4,18,0.00
2013-11-7,90,78,70,71,63,52,97,65,31,29.93,29.83,7,2,11,0.00
2013-11-9,91,77,74,68,65,62,82,66,48,30.30,29.93,12,5,26,0.06
2013-11-10,88,79,72,65,61,53,71,55,34,30.04,29.95,8,3,15,0.00
2013-11-11,87,76,69,66,60,55,84,58,35,30.03,29.96,9,2,16,0.00
2013-11-12,89,77,68,65,58,45,85,56,23,30.00,29.87,6,2,11,0.00
2013-11-13,76,72,68,61,52,36,69,51,30,30.14,29.91,14,5,24,0.00
2013-11-14,78,72,68,47,42,38,42,33,25,30.16,30.06,12,5,21,0.03
2013-11-15,82,76,72,57,53,47,51,45,36,30.07,29.95,11,4,20,0.00
2013-11-16,82,76,71,67,61,54,81,62,43,30.01,29.93,8,2,14,0.17
2013-11-17,88,78,71,68,62,56,78,60,37,29.99,29.91,9,2,15,0.01
2013-11-18,91,78,70,72,64,58,93,65,34,29.94,29.83,5,1,8,0.00
2013-11-19,90,76,71,70,66,57,86,72,35,29.85,29.76,5,1,11,0.13
2013-11-20,91,77,68,69,65,54,96,70,29,29.98,29.83,7,1,12,0.01
2013-11-21,84,76,72,74,68,64,93,78,53,30.06,29.96,10,2,16,1.02
2013-11-22,85,78,74,67,61,55,72,58,37,30.07,29.99,10,4,17,0.00
2013-11-23,86,76,70,69,61,56,83,62,35,30.00,29.88,8,1,13,0.00
2013-11-24,84,73,66,68,61,52,95,67,36,30.07,29.90,12,3,19,0.09
2013-11-25,77,73,71,60,53,45,63,51,39,30.12,29.97,14,6,23,0.00
2013-11-26,87,78,72,70,65,60,83,66,45,29.97,29.73,11,4,22,0.07
2013-11-27,79,71,56,72,58,42,98,65,34,30.04,29.69,13,4,22,0.55
2013-11-28,75,61,45,46,39,24,71,48,16,30.17,30.03,8,3,14,0.00
2013-11-30,70,66,64,54,53,50,71,63,49,30.06,30.02,1,0,8,0.06
2013-12-1,80,69,60,69,62,54,96,80,56,30.03,29.86,5,1,11,0.11
2013-12-2,73,67,60,67,61,55,95,81,55,29.86,29.74,6,2,13,0.03
2013-12-3,85,71,59,67,55,40,97,64,22,29.91,29.81,5,1,8,0.00
2013-12-4,88,73,63,67,57,47,93,61,25,30.00,29.90,5,1,10,0.00
2013-12-5,88,76,64,68,59,51,95,61,30,30.16,29.99,9,2,14,0.00
2013-12-6,88,75,67,70,60,49,88,64,28,30.11,30.00,10,2,15,0.00
2013-12-7,86,72,64,70,63,55,90,76,39,30.14,30.05,4,1,9,0.10
2013-12-8,87,77,70,70,60,48,86,59,26,30.12,30.03,11,2,17,0.00
2013-12-9,88,77,68,66,56,30,77,52,13,30.11,30.01,9,3,17,0.01
2013-12-10,92,76,66,69,60,46,92,63,23,30.08,29.99,6,1,10,0.00
2013-12-11,87,76,68,72,61,43,99,66,24,30.12,30.03,7,1,11,0.00
2013-12-12,80,70,63,71,59,46,99,70,42,30.15,30.05,9,2,16,0.00
2013-12-13,81,73,64,55,47,41,56,41,27,30.12,30.02,10,4,18,0.00
2013-12-14,86,77,73,65,59,52,77,55,34,30.03,29.90,11,4,17,0.00
2013-12-15,83,75,70,73,66,58,95,75,56,29.99,29.85,11,2,17,0.00
2013-12-16,77,67,59,59,50,42,73,55,31,30.09,29.96,7,3,12,0.00
2013-12-17,81,66,57,55,46,34,81,53,19,30.11,30.02,7,2,13,0.00
2013-12-18,78,66,57,56,43,23,82,50,14,30.17,30.07,8,2,14,0.00
2013-12-19,80,67,56,54,43,30,70,47,17,30.17,30.08,9,2,15,0.00
2013-12-20,83,73,62,62,54,50,81,55,32,30.11,30.02,10,2,16,0.00
2013-12-21,86,77,68,67,59,50,82,55,31,30.07,29.98,11,3,20,0.00
2013-12-22,87,79,76,64,59,48,66,52,27,30.08,29.99,11,4,19,0.00
2013-12-23,88,78,71,66,61,52,73,56,30,30.10,30.02,12,3,19,0.00
2013-12-24,86,71,67,70,58,46,96,65,41,30.09,30.02,10,2,19,0.00
2013-12-25,78,72,70,57,52,46,62,49,33,30.10,30.02,10,4,17,0.01
2013-12-26,91,73,71,62,58,54,71,60,53,30.30,30.01,4,1,7,0.01
2013-12-27,85,75,68,68,58,50,86,57,31,30.11,30.00,10,3,17,0.00
2013-12-28,81,76,73,66,58,54,74,53,41,30.10,29.94,12,4,20,0.03
2013-12-29,85,77,72,67,64,23,83,66,43,29.95,29.83,10,2,22,0.00
2013-12-30,82,72,67,68,62,54,90,72,39,30.07,29.88,6,2,11,0.00
2013-12-31,82,72,66,55,49,13,65,45,24,30.14,30.02,10,3,56,0.00
2014-1-1,85,76,72,68,57,47,86,54,33,30.11,29.95,10,4,18,0.04
2014-1-2,88,76,68,71,57,38,99,58,19,29.95,29.77,11,2,17,0.01